Time;durP1;ratioP1;P1;durP2;ratioP2;P2;SDS_P1;SDS_P2;PMS_P1;PMS_P2;Temp;Humidity;BMP_temperature;BMP_pressure;BME280_temperature;BME280_humidity;BME280_pressure;Samples;Min_cycle;Max_cycle;Signal;HPM_P1;HPM_P2
2021/03/22 00:00:49;;;;;;;24.95;5.72;;;7.50;99.90;;;;;;2082682;28;20032;-78
2021/03/22 00:01:50;;;;;;;28.02;5.75;;;7.40;99.90;;;;;;2090725;28;20025;-78
2021/03/22 00:02:51;;;;;;;24.05;4.80;;;7.50;99.90;;;;;;2084274;28;20034;-78
2021/03/22 00:03:52;;;;;;;18.70;4.50;;;7.40;99.90;;;;;;2081909;28;20021;-78
2021/03/22 00:04:52;;;;;;;21.85;5.55;;;7.40;99.90;;;;;;2081489;28;20042;-78
2021/03/22 00:05:54;;;;;;;22.60;4.60;;;7.40;99.90;;;;;;2084396;28;20030;-78
2021/03/22 00:06:55;;;;;;;19.98;4.13;;;7.50;99.90;;;;;;2089186;28;20029;-78
2021/03/22 00:07:56;;;;;;;19.23;4.75;;;7.50;99.90;;;;;;2087349;28;20025;-78
2021/03/22 00:08:57;;;;;;;21.65;5.60;;;7.50;99.90;;;;;;2082749;28;20488;-77
2021/03/22 00:09:58;;;;;;;29.77;5.40;;;7.50;99.90;;;;;;2090093;28;20044;-77
2021/03/22 00:10:58;;;;;;;27.55;6.55;;;7.50;99.90;;;;;;2090120;28;20476;-78
2021/03/22 00:11:59;;;;;;;23.60;4.72;;;7.50;99.90;;;;;;2094553;28;20052;-77
2021/03/22 00:13:00;;;;;;;23.30;4.97;;;7.50;99.90;;;;;;2082292;28;20036;-77
2021/03/22 00:14:01;;;;;;;20.08;5.05;;;7.50;99.90;;;;;;2084169;28;20074;-78
2021/03/22 00:15:04;;;;;;;25.88;5.40;;;7.50;99.90;;;;;;2074479;28;20033;-78
2021/03/22 00:16:08;;;;;;;32.28;5.75;;;7.50;99.90;;;;;;2086182;28;20028;-78
2021/03/22 00:17:09;;;;;;;21.50;4.25;;;7.50;99.90;;;;;;2089108;28;20021;-78
2021/03/22 00:18:16;;;;;;;26.45;5.18;;;7.40;99.90;;;;;;2076524;28;20076;-78
2021/03/22 00:19:16;;;;;;;22.60;5.07;;;7.40;99.90;;;;;;2083272;28;20025;-78
2021/03/22 00:20:19;;;;;;;26.98;5.65;;;7.50;99.90;;;;;;2091708;28;20081;-78
2021/03/22 00:21:20;;;;;;;20.02;5.22;;;7.40;99.90;;;;;;2086184;28;20048;-77
2021/03/22 00:22:21;;;;;;;27.20;5.32;;;7.40;99.90;;;;;;2083753;28;20017;-78
2021/03/22 00:23:22;;;;;;;18.33;4.85;;;7.40;99.90;;;;;;2079873;28;20084;-78
2021/03/22 00:24:23;;;;;;;23.75;4.20;;;7.40;99.90;;;;;;2080220;28;20022;-78
2021/03/22 00:25:25;;;;;;;24.23;4.72;;;7.40;99.90;;;;;;2075050;28;20033;-78
2021/03/22 00:26:27;;;;;;;25.08;5.15;;;7.40;99.90;;;;;;2079010;28;20068;-78
2021/03/22 00:27:28;;;;;;;20.48;4.65;;;7.40;99.90;;;;;;2083868;28;20029;-78
2021/03/22 00:28:29;;;;;;;19.58;4.95;;;7.40;99.90;;;;;;2087953;28;20265;-78
2021/03/22 00:29:29;;;;;;;23.30;4.93;;;7.40;99.90;;;;;;2078370;28;20117;-78
2021/03/22 00:30:33;;;;;;;18.65;4.35;;;7.40;99.90;;;;;;2078526;28;20034;-78
2021/03/22 00:31:34;;;;;;;31.35;5.40;;;7.40;99.90;;;;;;2089445;28;20278;-78
2021/03/22 00:32:35;;;;;;;30.75;5.18;;;7.40;99.90;;;;;;2081274;28;20535;-77
2021/03/22 00:33:36;;;;;;;21.60;4.97;;;7.50;99.90;;;;;;2074342;28;20022;-78
2021/03/22 00:34:37;;;;;;;20.67;4.25;;;7.50;99.90;;;;;;2076587;28;20022;-77
2021/03/22 00:35:38;;;;;;;20.35;5.00;;;7.40;99.90;;;;;;2078513;28;20025;-77
2021/03/22 00:36:38;;;;;;;29.02;5.88;;;7.50;99.90;;;;;;2084260;28;20108;-77
2021/03/22 00:37:39;;;;;;;28.55;5.88;;;7.50;99.90;;;;;;2084993;28;20071;-76
2021/03/22 00:38:40;;;;;;;20.85;3.83;;;7.50;99.90;;;;;;2075588;28;20030;-77
2021/03/22 00:39:40;;;;;;;21.15;4.75;;;7.50;99.90;;;;;;2081319;28;20234;-77
2021/03/22 00:40:43;;;;;;;19.55;4.95;;;7.40;99.90;;;;;;2076860;28;20289;-77
2021/03/22 00:41:44;;;;;;;25.38;4.32;;;7.40;99.90;;;;;;2079429;28;20756;-77
2021/03/22 00:42:45;;;;;;;26.73;5.07;;;7.40;99.90;;;;;;2073669;28;20080;-77
2021/03/22 00:43:45;;;;;;;29.77;4.88;;;7.40;99.90;;;;;;2088822;28;20035;-78
2021/03/22 00:44:46;;;;;;;23.50;5.43;;;7.30;99.90;;;;;;2084681;28;20025;-78
2021/03/22 00:45:47;;;;;;;27.75;4.70;;;7.40;99.90;;;;;;2083020;28;20025;-76
2021/03/22 00:46:48;;;;;;;20.55;5.38;;;7.30;99.90;;;;;;2086348;28;20027;-77
2021/03/22 00:47:50;;;;;;;19.27;4.43;;;7.30;99.90;;;;;;2087204;28;20472;-77
2021/03/22 00:48:50;;;;;;;19.00;4.50;;;7.30;99.90;;;;;;2089490;28;20021;-77
2021/03/22 00:49:51;;;;;;;27.85;4.65;;;7.30;99.90;;;;;;2079957;28;20492;-77
2021/03/22 00:50:52;;;;;;;20.45;6.03;;;7.30;99.90;;;;;;2082041;28;20036;-77
2021/03/22 00:51:52;;;;;;;26.40;5.43;;;7.30;99.90;;;;;;2089920;28;20036;-77
2021/03/22 00:52:53;;;;;;;19.27;5.00;;;7.30;99.90;;;;;;2086890;28;20040;-77
2021/03/22 00:53:54;;;;;;;27.80;4.78;;;7.30;99.90;;;;;;2075606;28;20034;-78
2021/03/22 00:54:54;;;;;;;25.13;4.93;;;7.30;99.90;;;;;;2081542;28;20030;-77
2021/03/22 00:55:55;;;;;;;25.65;4.78;;;7.20;99.90;;;;;;2083376;28;20080;-77
2021/03/22 00:56:56;;;;;;;28.70;5.32;;;7.20;99.90;;;;;;2088910;28;20029;-77
2021/03/22 00:57:56;;;;;;;20.70;4.40;;;7.20;99.90;;;;;;2077875;28;20026;-77
2021/03/22 00:58:57;;;;;;;24.20;4.85;;;7.20;99.90;;;;;;2082354;28;20087;-78
2021/03/22 00:59:57;;;;;;;28.90;5.55;;;7.20;99.90;;;;;;2081487;28;20033;-77
2021/03/22 01:00:59;;;;;;;24.40;5.30;;;7.10;99.90;;;;;;2075487;28;20026;-76
2021/03/22 01:02:01;;;;;;;26.67;4.97;;;7.20;99.90;;;;;;2080825;28;20029;-77
2021/03/22 01:03:04;;;;;;;21.75;4.95;;;7.10;99.90;;;;;;2081984;28;20059;-78
2021/03/22 01:04:05;;;;;;;27.20;4.80;;;7.10;99.90;;;;;;2081506;28;20029;-77
2021/03/22 01:05:06;;;;;;;26.10;5.40;;;7.10;99.90;;;;;;2080744;28;20517;-77
2021/03/22 01:06:08;;;;;;;29.58;5.43;;;7.10;99.90;;;;;;2080948;28;20025;-78
2021/03/22 01:07:09;;;;;;;29.70;5.43;;;7.10;99.90;;;;;;2074219;28;20026;-77
2021/03/22 01:08:11;;;;;;;22.00;4.13;;;7.10;99.90;;;;;;2079027;28;20033;-78
2021/03/22 01:09:11;;;;;;;27.13;5.47;;;7.10;99.90;;;;;;2082278;28;20396;-77
2021/03/22 01:10:39;;;;;;;24.67;4.40;;;7.00;99.90;;;;;;2081658;28;20425;-77
2021/03/22 01:11:40;;;;;;;24.17;5.30;;;7.10;99.90;;;;;;2088895;28;20031;-77
2021/03/22 01:12:41;;;;;;;23.75;4.63;;;7.10;99.90;;;;;;2091129;28;20033;-78
2021/03/22 01:13:53;;;;;;;26.30;4.63;;;7.10;99.90;;;;;;2082544;28;20047;-77
2021/03/22 01:14:53;;;;;;;20.27;4.32;;;7.00;99.90;;;;;;2084213;28;20034;-77
2021/03/22 01:15:55;;;;;;;19.90;4.30;;;7.00;99.90;;;;;;2077216;28;20030;-76
2021/03/22 01:16:56;;;;;;;23.88;5.22;;;7.00;99.90;;;;;;2076848;28;20765;-77
2021/03/22 01:17:57;;;;;;;28.08;5.45;;;7.00;99.90;;;;;;2082591;28;20164;-77
2021/03/22 01:18:58;;;;;;;21.35;5.13;;;7.00;99.90;;;;;;2084295;28;20080;-77
2021/03/22 01:19:59;;;;;;;25.17;5.47;;;7.00;99.90;;;;;;2081012;28;20112;-78
2021/03/22 01:21:05;;;;;;;21.92;5.88;;;7.00;99.90;;;;;;2076697;28;20026;-79
2021/03/22 01:22:06;;;;;;;24.45;4.35;;;7.00;99.90;;;;;;2076810;28;20032;-78
2021/03/22 01:23:07;;;;;;;23.77;4.93;;;7.00;99.90;;;;;;2077152;28;20025;-79
2021/03/22 01:24:10;;;;;;;20.60;4.22;;;7.00;99.90;;;;;;2085947;28;20017;-79
2021/03/22 01:25:11;;;;;;;27.23;5.47;;;7.00;99.90;;;;;;2089267;28;20033;-78
2021/03/22 01:26:14;;;;;;;20.63;4.93;;;7.00;99.90;;;;;;2080843;28;20029;-79
2021/03/22 01:27:15;;;;;;;22.60;3.92;;;7.00;99.90;;;;;;2076263;28;20021;-78
2021/03/22 01:28:17;;;;;;;20.02;4.72;;;7.00;99.90;;;;;;2077669;28;20438;-78
2021/03/22 01:29:23;;;;;;;29.58;4.60;;;7.00;99.90;;;;;;2079080;28;20025;-77
2021/03/22 01:30:36;;;;;;;21.33;5.32;;;7.00;99.90;;;;;;2082698;28;20098;-79
2021/03/22 01:31:36;;;;;;;35.17;5.93;;;7.00;99.90;;;;;;2089814;28;20029;-77
2021/03/22 01:32:37;;;;;;;20.48;4.38;;;7.00;99.90;;;;;;2085069;28;20025;-78
2021/03/22 01:33:39;;;;;;;27.58;5.03;;;7.00;99.90;;;;;;2086469;28;20049;-77
2021/03/22 01:34:40;;;;;;;26.67;4.38;;;7.00;99.90;;;;;;2079361;28;20025;-78
2021/03/22 01:35:41;;;;;;;19.63;4.65;;;7.00;99.90;;;;;;2079678;28;20037;-78
2021/03/22 01:36:42;;;;;;;26.25;4.85;;;7.00;99.90;;;;;;2081038;28;20467;-77
2021/03/22 01:37:43;;;;;;;20.73;4.45;;;7.00;99.90;;;;;;2076673;28;20111;-79
2021/03/22 01:38:45;;;;;;;23.17;4.55;;;7.00;99.90;;;;;;2083258;28;20238;-78
2021/03/22 01:39:45;;;;;;;26.33;4.93;;;7.00;99.90;;;;;;2087540;28;20029;-79
2021/03/22 01:41:05;;;;;;;22.40;5.63;;;6.90;99.90;;;;;;2080023;28;20026;-77
2021/03/22 01:42:17;;;;;;;33.53;5.53;;;6.90;99.90;;;;;;2078378;28;20028;-78
2021/03/22 01:43:36;;;;;;;19.92;4.10;;;6.90;99.90;;;;;;2075096;28;20022;-78
2021/03/22 01:44:43;;;;;;;21.98;4.65;;;6.90;99.90;;;;;;2082699;28;20477;-79
2021/03/22 01:45:44;;;;;;;16.70;4.00;;;6.90;99.90;;;;;;2083813;28;20029;-78
2021/03/22 01:46:58;;;;;;;22.10;4.43;;;6.90;99.90;;;;;;2088542;28;20029;-78
2021/03/22 01:47:58;;;;;;;24.83;4.53;;;6.90;99.90;;;;;;2080998;28;20068;-78
2021/03/22 01:49:01;;;;;;;20.88;5.05;;;6.90;99.90;;;;;;2082034;28;20026;-77
2021/03/22 01:50:18;;;;;;;26.20;5.20;;;7.00;99.90;;;;;;2081663;28;20061;-78
2021/03/22 01:51:20;;;;;;;30.35;6.07;;;7.00;99.90;;;;;;2079100;28;20068;-79
2021/03/22 01:52:23;;;;;;;26.48;5.93;;;7.00;99.90;;;;;;2087513;28;20051;-78
2021/03/22 01:53:24;;;;;;;32.03;5.63;;;7.00;99.90;;;;;;2083664;28;20562;-78
2021/03/22 01:54:25;;;;;;;21.73;4.95;;;7.00;99.90;;;;;;2075963;28;20084;-79
2021/03/22 01:55:26;;;;;;;26.50;4.65;;;7.00;99.90;;;;;;2079974;28;20072;-78
2021/03/22 01:56:33;;;;;;;23.58;5.25;;;7.00;99.90;;;;;;2085059;28;20025;-78
2021/03/22 01:57:42;;;;;;;23.08;5.05;;;7.00;99.90;;;;;;2080578;28;20037;-79
2021/03/22 01:58:42;;;;;;;25.25;4.43;;;7.00;99.90;;;;;;2080926;28;20076;-78
2021/03/22 01:59:43;;;;;;;25.10;5.35;;;7.00;99.90;;;;;;2081761;28;20175;-78
2021/03/22 02:00:44;;;;;;;18.73;4.55;;;7.00;99.90;;;;;;2071913;28;20149;-78
2021/03/22 02:01:51;;;;;;;26.55;4.60;;;7.00;99.90;;;;;;2078656;28;20489;-78
2021/03/22 02:02:56;;;;;;;18.33;4.10;;;7.00;99.90;;;;;;2079011;28;20493;-78
2021/03/22 02:03:57;;;;;;;20.20;4.18;;;7.00;99.90;;;;;;2080360;28;20068;-79
2021/03/22 02:04:59;;;;;;;25.30;5.63;;;7.00;99.90;;;;;;2080740;28;20036;-79
2021/03/22 02:06:00;;;;;;;24.50;4.35;;;7.00;99.90;;;;;;2079645;28;20025;-79
2021/03/22 02:07:01;;;;;;;27.20;4.55;;;7.00;99.90;;;;;;2075084;28;20032;-78
2021/03/22 02:08:14;;;;;;;30.92;4.43;;;7.00;99.90;;;;;;2076938;28;20053;-79
2021/03/22 02:09:16;;;;;;;28.05;5.80;;;7.00;99.90;;;;;;2079965;28;20048;-79
2021/03/22 02:10:17;;;;;;;20.98;4.05;;;7.00;99.90;;;;;;2083393;28;20033;-78
2021/03/22 02:11:30;;;;;;;24.73;5.05;;;6.90;99.90;;;;;;2079529;28;20478;-78
2021/03/22 02:12:31;;;;;;;21.25;5.10;;;7.00;99.90;;;;;;2079146;28;20026;-78
2021/03/22 02:13:36;;;;;;;14.98;3.92;;;7.00;99.90;;;;;;2076656;28;20228;-79
2021/03/22 02:14:36;;;;;;;22.42;5.03;;;7.00;99.90;;;;;;2080009;28;20025;-80
2021/03/22 02:15:42;;;;;;;20.40;4.80;;;7.00;99.90;;;;;;2071731;28;20025;-78
2021/03/22 02:16:50;;;;;;;22.75;5.22;;;7.00;99.90;;;;;;2086070;28;20238;-78
2021/03/22 02:17:50;;;;;;;24.08;5.35;;;7.00;99.90;;;;;;2079833;28;20025;-79
2021/03/22 02:19:27;;;;;;;23.52;4.88;;;7.00;99.90;;;;;;2078441;28;20308;-78
2021/03/22 02:20:40;;;;;;;16.65;4.13;;;6.90;99.90;;;;;;2083297;28;20566;-78
2021/03/22 02:22:02;;;;;;;19.85;5.20;;;6.90;99.90;;;;;;2085475;28;20033;-80
2021/03/22 02:23:40;;;;;;;21.02;4.57;;;6.90;99.90;;;;;;2081335;28;20020;-78
2021/03/22 02:24:50;;;;;;;24.98;4.32;;;6.90;99.90;;;;;;2082765;28;20027;-79
2021/03/22 02:26:00;;;;;;;23.27;4.37;;;6.80;99.90;;;;;;2080631;28;20477;-78
2021/03/22 02:27:19;;;;;;;21.15;4.95;;;6.80;99.90;;;;;;2072968;28;20265;-79
2021/03/22 02:28:51;;;;;;;26.38;5.18;;;6.80;99.90;;;;;;2079237;28;20025;-80
2021/03/22 02:30:16;;;;;;;23.45;4.75;;;6.80;99.90;;;;;;2086453;28;20036;-78
2021/03/22 02:31:38;;;;;;;23.52;4.53;;;6.80;99.90;;;;;;2084433;28;20439;-78
2021/03/22 02:33:05;;;;;;;22.17;4.50;;;6.80;99.90;;;;;;2080950;28;20033;-78
2021/03/22 02:34:14;;;;;;;22.35;5.70;;;6.80;99.90;;;;;;2088409;28;20032;-78
2021/03/22 02:35:18;;;;;;;21.70;5.32;;;6.80;99.90;;;;;;2083849;28;20053;-78
2021/03/22 02:36:31;;;;;;;26.80;4.90;;;6.80;99.90;;;;;;2073753;28;20033;-78
2021/03/22 02:37:41;;;;;;;21.38;4.47;;;6.80;99.90;;;;;;2085873;28;20096;-78
2021/03/22 02:38:53;;;;;;;29.60;4.80;;;6.80;99.90;;;;;;2081922;28;20084;-79
2021/03/22 02:40:15;;;;;;;24.17;5.15;;;6.80;99.90;;;;;;2081648;28;20038;-78
2021/03/22 02:41:21;;;;;;;30.58;5.55;;;6.80;99.90;;;;;;2077495;28;20025;-78
2021/03/22 02:42:24;;;;;;;24.63;4.63;;;6.80;99.90;;;;;;2080840;28;20506;-78
2021/03/22 02:43:25;;;;;;;18.60;4.88;;;6.80;99.90;;;;;;2075437;28;20029;-78
2021/03/22 02:44:29;;;;;;;22.98;4.35;;;6.80;99.90;;;;;;2078099;28;20056;-79
2021/03/22 02:45:42;;;;;;;19.90;4.25;;;6.80;99.90;;;;;;2078282;28;20112;-78
2021/03/22 02:46:42;;;;;;;19.23;5.00;;;6.80;99.90;;;;;;2083463;28;20048;-78
2021/03/22 02:47:43;;;;;;;28.33;5.30;;;6.80;99.90;;;;;;2084344;28;20033;-79
2021/03/22 02:48:43;;;;;;;16.30;4.70;;;6.80;99.90;;;;;;2086817;28;20026;-78
2021/03/22 02:49:45;;;;;;;23.42;4.90;;;6.90;99.90;;;;;;2082406;28;20026;-78
2021/03/22 02:50:50;;;;;;;19.98;4.55;;;6.90;99.90;;;;;;2089919;28;20025;-79
2021/03/22 02:52:03;;;;;;;20.23;4.72;;;6.90;99.90;;;;;;2085632;28;20489;-79
2021/03/22 02:53:22;;;;;;;26.27;5.25;;;6.90;99.90;;;;;;2086812;28;20409;-78
2021/03/22 02:54:47;;;;;;;24.63;5.57;;;6.90;99.90;;;;;;2087030;28;20017;-79
2021/03/22 02:56:13;;;;;;;24.02;5.32;;;6.90;99.90;;;;;;2085408;28;20039;-78
2021/03/22 02:57:19;;;;;;;23.27;5.43;;;6.80;99.90;;;;;;2084389;28;20076;-78
2021/03/22 02:58:29;;;;;;;23.70;5.30;;;6.80;99.90;;;;;;2081578;28;20025;-79
2021/03/22 02:59:45;;;;;;;23.33;5.22;;;6.80;99.90;;;;;;2082637;28;20126;-79
2021/03/22 03:01:18;;;;;;;21.35;5.07;;;6.80;99.90;;;;;;2081842;28;20018;-79
2021/03/22 03:02:19;;;;;;;20.73;4.80;;;6.80;99.90;;;;;;2091314;28;20017;-79
2021/03/22 03:03:21;;;;;;;19.35;5.10;;;6.80;99.90;;;;;;2087998;28;20021;-79
2021/03/22 03:04:22;;;;;;;17.13;4.30;;;6.80;99.90;;;;;;2087751;28;20043;-79
2021/03/22 03:05:25;;;;;;;19.92;5.22;;;6.80;99.90;;;;;;2091849;28;20025;-78
2021/03/22 03:06:53;;;;;;;18.40;4.75;;;6.80;99.90;;;;;;2079414;28;20109;-78
2021/03/22 03:07:59;;;;;;;17.25;4.47;;;6.90;99.90;;;;;;2081368;28;20080;-79
2021/03/22 03:09:00;;;;;;;14.98;4.63;;;6.90;99.90;;;;;;2082437;28;20437;-78
2021/03/22 03:10:01;;;;;;;29.15;6.35;;;6.90;99.90;;;;;;2082848;28;20154;-79
2021/03/22 03:11:02;;;;;;;27.45;5.10;;;6.90;99.90;;;;;;2083386;28;20075;-79
2021/03/22 03:12:25;;;;;;;18.45;4.93;;;6.90;99.90;;;;;;2091044;28;20033;-79
2021/03/22 03:13:25;;;;;;;17.08;4.18;;;6.90;99.90;;;;;;2081788;28;20025;-79
2021/03/22 03:14:26;;;;;;;18.20;4.38;;;6.90;99.90;;;;;;2078824;28;20243;-79
2021/03/22 03:15:27;;;;;;;19.10;4.63;;;7.00;99.90;;;;;;2088204;28;20087;-79
2021/03/22 03:16:27;;;;;;;22.40;5.07;;;6.90;99.90;;;;;;2090488;28;20025;-78
2021/03/22 03:17:28;;;;;;;19.42;4.32;;;7.00;99.90;;;;;;2081978;28;20029;-78
2021/03/22 03:18:29;;;;;;;21.98;4.55;;;7.00;99.90;;;;;;2090965;28;20468;-78
2021/03/22 03:19:29;;;;;;;21.05;4.45;;;7.00;99.90;;;;;;2087196;28;20104;-78
2021/03/22 03:20:31;;;;;;;21.85;4.65;;;6.90;99.90;;;;;;2089070;28;20017;-78
2021/03/22 03:21:33;;;;;;;23.77;5.35;;;7.00;99.90;;;;;;2086190;28;20014;-78
2021/03/22 03:22:33;;;;;;;23.90;5.30;;;7.00;99.90;;;;;;2076135;28;20018;-79
2021/03/22 03:23:34;;;;;;;27.27;5.85;;;7.00;99.90;;;;;;2088129;28;20032;-79
2021/03/22 03:24:39;;;;;;;18.50;5.40;;;6.90;99.90;;;;;;2096775;28;20096;-78
2021/03/22 03:25:40;;;;;;;19.90;4.65;;;7.00;99.90;;;;;;2086720;28;20021;-79
2021/03/22 03:26:40;;;;;;;24.00;4.65;;;7.00;99.90;;;;;;2084323;28;20026;-79
2021/03/22 03:27:41;;;;;;;18.33;4.18;;;6.90;99.90;;;;;;2097406;28;20040;-79
2021/03/22 03:28:42;;;;;;;13.65;4.28;;;6.90;99.90;;;;;;2095918;28;20048;-79
2021/03/22 03:29:43;;;;;;;23.80;4.95;;;7.00;99.90;;;;;;2091271;28;20541;-79
2021/03/22 03:30:44;;;;;;;20.08;4.90;;;7.00;99.90;;;;;;2083306;28;20036;-78
2021/03/22 03:31:44;;;;;;;20.23;5.03;;;7.00;99.90;;;;;;2082172;28;20093;-79
2021/03/22 03:32:45;;;;;;;21.63;4.97;;;6.90;99.90;;;;;;2087238;28;20021;-78
2021/03/22 03:33:46;;;;;;;23.10;5.72;;;6.90;99.90;;;;;;2090182;28;20026;-78
2021/03/22 03:34:47;;;;;;;25.20;4.97;;;6.90;99.90;;;;;;2079191;28;20030;-78
2021/03/22 03:35:48;;;;;;;26.30;5.78;;;6.90;99.90;;;;;;2075293;28;20519;-78
2021/03/22 03:36:48;;;;;;;19.50;4.72;;;6.90;99.90;;;;;;2085322;28;20033;-78
2021/03/22 03:37:49;;;;;;;24.20;4.97;;;6.90;99.90;;;;;;2083686;28;20033;-78
2021/03/22 03:38:50;;;;;;;18.17;4.90;;;6.90;99.90;;;;;;2087882;28;20021;-77
2021/03/22 03:39:50;;;;;;;23.63;4.63;;;6.90;99.90;;;;;;2084156;28;20025;-78
2021/03/22 03:40:51;;;;;;;21.42;4.50;;;6.90;99.90;;;;;;2090646;28;20024;-78
2021/03/22 03:41:52;;;;;;;20.50;5.85;;;7.00;99.90;;;;;;2083845;28;20029;-78
2021/03/22 03:42:53;;;;;;;19.38;4.78;;;7.00;99.90;;;;;;2091082;28;20488;-77
2021/03/22 03:43:53;;;;;;;18.90;4.95;;;7.00;99.90;;;;;;2083284;28;20026;-78
2021/03/22 03:44:54;;;;;;;21.67;5.32;;;7.00;99.90;;;;;;2089791;28;20028;-78
2021/03/22 03:45:55;;;;;;;20.38;5.03;;;7.00;99.90;;;;;;2083789;28;20417;-77
2021/03/22 03:46:56;;;;;;;24.30;5.38;;;7.00;99.90;;;;;;2089678;28;20129;-78
2021/03/22 03:47:56;;;;;;;18.38;5.18;;;7.00;99.90;;;;;;2083675;28;20033;-78
2021/03/22 03:48:57;;;;;;;20.40;5.18;;;7.00;99.90;;;;;;2090932;28;20053;-78
2021/03/22 03:49:58;;;;;;;17.40;5.75;;;7.00;99.90;;;;;;2092039;28;20044;-78
2021/03/22 03:51:01;;;;;;;24.48;5.75;;;7.00;99.90;;;;;;2091380;28;20457;-78
2021/03/22 03:52:04;;;;;;;20.90;4.90;;;6.90;99.90;;;;;;2091480;28;20051;-78
2021/03/22 03:53:05;;;;;;;25.60;5.13;;;7.00;99.90;;;;;;2083761;28;20048;-78
2021/03/22 03:54:07;;;;;;;27.20;5.55;;;7.00;99.90;;;;;;2081298;28;20408;-77
2021/03/22 03:55:08;;;;;;;18.30;4.80;;;7.00;99.90;;;;;;2081839;28;20083;-77
2021/03/22 03:56:09;;;;;;;20.98;5.43;;;6.90;99.90;;;;;;2090937;28;20485;-76
2021/03/22 03:57:10;;;;;;;25.52;6.82;;;6.90;99.90;;;;;;2087810;28;20029;-77
2021/03/22 03:58:10;;;;;;;18.95;4.95;;;6.90;99.90;;;;;;2081904;28;20025;-77
2021/03/22 03:59:11;;;;;;;23.13;5.63;;;6.90;99.90;;;;;;2088783;28;20445;-77
2021/03/22 04:00:15;;;;;;;19.45;5.32;;;6.90;99.90;;;;;;2084022;28;20022;-77
2021/03/22 04:01:15;;;;;;;21.77;5.85;;;6.90;99.90;;;;;;2080490;28;20034;-77
2021/03/22 04:02:16;;;;;;;26.95;5.85;;;6.90;99.90;;;;;;2077841;28;20594;-78
2021/03/22 04:03:26;;;;;;;20.67;5.15;;;6.90;99.90;;;;;;2090734;28;20140;-76
2021/03/22 04:04:26;;;;;;;26.88;5.63;;;6.90;99.90;;;;;;2082414;28;20048;-77
2021/03/22 04:05:27;;;;;;;20.85;4.63;;;6.90;99.90;;;;;;2077295;28;20030;-78
2021/03/22 04:06:31;;;;;;;22.42;5.50;;;6.90;99.90;;;;;;2085716;28;20504;-78
2021/03/22 04:07:31;;;;;;;28.00;6.50;;;6.90;99.90;;;;;;2083821;28;20103;-78
2021/03/22 04:08:34;;;;;;;21.95;5.32;;;6.90;99.90;;;;;;2080662;28;20029;-78
2021/03/22 04:09:35;;;;;;;22.52;5.38;;;6.90;99.90;;;;;;2079511;28;20068;-79
2021/03/22 04:10:36;;;;;;;26.40;6.32;;;6.90;99.90;;;;;;2079183;28;20484;-78
2021/03/22 04:11:38;;;;;;;25.85;6.18;;;6.90;99.90;;;;;;2085854;28;20079;-79
2021/03/22 04:12:39;;;;;;;19.25;6.32;;;6.90;99.90;;;;;;2082942;28;20039;-78
2021/03/22 04:13:40;;;;;;;19.98;5.70;;;6.90;99.90;;;;;;2081480;28;20382;-78
2021/03/22 04:14:41;;;;;;;18.23;5.47;;;7.00;99.90;;;;;;2088420;28;20017;-79
2021/03/22 04:15:41;;;;;;;19.15;5.40;;;7.00;99.90;;;;;;2077880;28;20162;-78
2021/03/22 04:16:43;;;;;;;28.63;5.70;;;7.00;99.90;;;;;;2077813;28;20026;-79
2021/03/22 04:17:43;;;;;;;19.50;5.80;;;7.00;99.90;;;;;;2084959;28;20036;-78
2021/03/22 04:18:44;;;;;;;18.10;6.05;;;7.00;99.90;;;;;;2087482;28;20127;-79
2021/03/22 04:19:45;;;;;;;18.67;6.68;;;7.10;99.90;;;;;;2084594;28;20033;-78
2021/03/22 04:20:45;;;;;;;21.25;6.35;;;7.10;99.90;;;;;;2078357;28;20100;-80
2021/03/22 04:21:47;;;;;;;15.88;5.60;;;7.10;99.90;;;;;;2081008;28;20025;-79
2021/03/22 04:22:47;;;;;;;20.27;5.35;;;7.00;99.90;;;;;;2079504;28;20025;-78
2021/03/22 04:23:48;;;;;;;26.08;7.32;;;7.00;99.90;;;;;;2079708;28;20144;-78
2021/03/22 04:24:49;;;;;;;19.55;5.93;;;7.00;99.90;;;;;;2079488;28;20047;-79
2021/03/22 04:25:50;;;;;;;19.45;6.63;;;7.00;99.90;;;;;;2076006;28;20033;-80
2021/03/22 04:26:50;;;;;;;30.00;6.55;;;7.00;99.90;;;;;;2088058;28;20017;-79
2021/03/22 04:27:51;;;;;;;27.60;6.78;;;7.00;99.90;;;;;;2094637;28;20016;-79
2021/03/22 04:28:52;;;;;;;21.75;6.53;;;7.00;99.90;;;;;;2089412;28;20024;-80
2021/03/22 04:29:52;;;;;;;24.58;6.40;;;7.00;99.90;;;;;;2080326;28;20021;-79
2021/03/22 04:30:53;;;;;;;24.25;6.65;;;7.00;99.90;;;;;;2081390;28;20026;-80
2021/03/22 04:31:54;;;;;;;24.13;7.50;;;7.10;99.90;;;;;;2081089;28;20083;-77
2021/03/22 04:32:55;;;;;;;20.08;6.43;;;7.00;99.90;;;;;;2083990;28;20117;-79
2021/03/22 04:33:58;;;;;;;22.80;6.95;;;7.00;99.90;;;;;;2089036;28;20028;-78
2021/03/22 04:34:58;;;;;;;20.17;6.97;;;7.00;99.90;;;;;;2088803;28;20029;-79
2021/03/22 04:36:00;;;;;;;24.63;6.70;;;7.00;99.90;;;;;;2089693;28;20556;-78
2021/03/22 04:37:00;;;;;;;16.30;6.13;;;7.00;99.90;;;;;;2087549;28;20031;-78
2021/03/22 04:38:01;;;;;;;32.45;8.13;;;7.00;99.90;;;;;;2085295;28;20040;-78
2021/03/22 04:39:05;;;;;;;22.10;7.90;;;7.00;99.90;;;;;;2089440;28;20074;-79
2021/03/22 04:40:07;;;;;;;21.65;7.75;;;6.90;99.90;;;;;;2089560;28;20028;-78
2021/03/22 04:41:08;;;;;;;25.88;7.75;;;6.90;99.90;;;;;;2088793;28;20029;-77
2021/03/22 04:42:09;;;;;;;26.90;7.40;;;6.90;99.90;;;;;;2081347;28;20438;-79
2021/03/22 04:43:11;;;;;;;17.85;7.30;;;6.80;99.90;;;;;;2082653;28;20101;-79
2021/03/22 04:44:12;;;;;;;21.40;7.32;;;6.80;99.90;;;;;;2088909;28;20025;-79
2021/03/22 04:45:13;;;;;;;23.42;6.43;;;6.80;99.90;;;;;;2080621;28;20021;-79
2021/03/22 04:46:14;;;;;;;23.08;6.43;;;6.80;99.90;;;;;;2085811;28;20282;-78
2021/03/22 04:47:14;;;;;;;22.60;7.38;;;6.80;99.90;;;;;;2087551;28;20230;-78
2021/03/22 04:48:16;;;;;;;20.98;6.88;;;6.80;99.90;;;;;;2079185;28;20029;-78
2021/03/22 04:49:17;;;;;;;26.85;7.35;;;6.80;99.90;;;;;;2080806;28;20083;-78
2021/03/22 04:50:19;;;;;;;18.30;7.05;;;6.80;99.90;;;;;;2086506;28;20734;-78
2021/03/22 04:51:20;;;;;;;22.63;6.97;;;6.80;99.90;;;;;;2074087;28;20041;-80
2021/03/22 04:52:20;;;;;;;25.42;7.82;;;6.80;99.90;;;;;;2077337;28;20021;-80
2021/03/22 04:53:21;;;;;;;25.60;8.05;;;6.80;99.90;;;;;;2076228;28;20444;-78
2021/03/22 04:54:22;;;;;;;24.25;6.40;;;6.80;99.90;;;;;;2080814;28;20493;-80
2021/03/22 04:55:25;;;;;;;25.73;7.75;;;6.80;99.90;;;;;;2089410;28;20021;-79
2021/03/22 04:56:26;;;;;;;14.95;6.57;;;6.80;99.90;;;;;;2081291;28;20029;-79
2021/03/22 04:57:29;;;;;;;21.67;6.75;;;6.80;99.90;;;;;;2080009;28;20045;-76
2021/03/22 04:58:30;;;;;;;26.45;7.70;;;6.80;99.90;;;;;;2081153;28;20036;-78
2021/03/22 04:59:30;;;;;;;22.25;7.43;;;6.80;99.90;;;;;;2081708;28;20508;-78
2021/03/22 05:00:39;;;;;;;25.13;7.85;;;6.80;99.90;;;;;;2081393;28;20041;-79
2021/03/22 05:01:40;;;;;;;26.02;8.20;;;6.80;99.90;;;;;;2081524;28;20429;-78
2021/03/22 05:02:40;;;;;;;22.17;8.10;;;6.80;99.90;;;;;;2087427;28;20057;-79
2021/03/22 05:03:41;;;;;;;19.83;7.18;;;6.80;99.90;;;;;;2081483;28;20021;-79
2021/03/22 05:04:42;;;;;;;23.30;8.15;;;6.80;99.90;;;;;;2082086;28;20025;-81
2021/03/22 05:05:43;;;;;;;28.92;9.07;;;6.80;99.90;;;;;;2088022;28;20091;-79
2021/03/22 05:06:43;;;;;;;20.50;8.98;;;6.80;99.90;;;;;;2082532;28;20025;-80
2021/03/22 05:07:44;;;;;;;26.48;10.70;;;6.80;99.90;;;;;;2087793;28;20096;-79
2021/03/22 05:08:45;;;;;;;31.60;11.05;;;6.80;99.90;;;;;;2078219;28;20044;-80
2021/03/22 05:09:46;;;;;;;23.20;8.70;;;6.80;99.90;;;;;;2084152;28;20037;-79
2021/03/22 05:10:48;;;;;;;21.13;8.05;;;6.70;99.90;;;;;;2087004;28;20159;-79
2021/03/22 05:11:49;;;;;;;29.13;8.00;;;6.70;99.90;;;;;;2089772;28;20520;-79
2021/03/22 05:12:50;;;;;;;25.50;7.90;;;6.70;99.90;;;;;;2087655;28;20021;-78
2021/03/22 05:13:50;;;;;;;28.40;7.97;;;6.70;99.90;;;;;;2080145;28;20032;-79
2021/03/22 05:14:51;;;;;;;28.35;7.82;;;6.70;99.90;;;;;;2073225;28;20033;-78
2021/03/22 05:15:53;;;;;;;29.50;8.82;;;6.60;99.90;;;;;;2078964;28;20071;-79
2021/03/22 05:16:54;;;;;;;24.77;8.07;;;6.60;99.90;;;;;;2080643;28;20060;-78
2021/03/22 05:17:55;;;;;;;19.65;7.85;;;6.60;99.90;;;;;;2081603;28;20022;-79
2021/03/22 05:18:56;;;;;;;25.48;9.70;;;6.60;99.90;;;;;;2078877;28;20666;-79
2021/03/22 05:19:56;;;;;;;31.95;8.43;;;6.60;99.90;;;;;;2079884;28;20025;-79
2021/03/22 05:21:02;;;;;;;26.90;7.53;;;6.60;99.90;;;;;;2074967;28;20060;-79
2021/03/22 05:22:03;;;;;;;24.23;9.20;;;6.60;99.90;;;;;;2074534;28;20107;-78
2021/03/22 05:23:10;;;;;;;23.58;8.30;;;6.60;99.90;;;;;;2076472;28;20409;-79
2021/03/22 05:24:11;;;;;;;29.33;7.75;;;6.60;99.90;;;;;;2073666;28;20506;-79
2021/03/22 05:25:13;;;;;;;19.77;7.95;;;6.60;99.90;;;;;;2072743;28;20026;-79
2021/03/22 05:26:13;;;;;;;24.90;8.32;;;6.60;99.90;;;;;;2086138;28;20051;-79
2021/03/22 05:27:14;;;;;;;28.30;9.27;;;6.60;99.90;;;;;;2082308;28;20116;-79
2021/03/22 05:28:15;;;;;;;23.17;8.05;;;6.60;99.90;;;;;;2085285;28;20037;-79
2021/03/22 05:29:16;;;;;;;25.50;9.00;;;6.60;99.90;;;;;;2081623;28;20029;-78
2021/03/22 05:30:20;;;;;;;28.05;9.73;;;6.60;99.90;;;;;;2082539;28;20424;-78
2021/03/22 05:31:21;;;;;;;26.30;8.32;;;6.70;99.90;;;;;;2088466;28;20265;-77